createdAt,value
2022-09-25T00:01:48.772Z,16.02
2022-09-25T00:06:50.309Z,16.00
2022-09-25T00:11:51.819Z,15.98
2022-09-25T00:16:53.390Z,15.99
2022-09-25T00:21:54.912Z,15.99
2022-09-25T00:26:56.389Z,15.99
2022-09-25T00:31:57.952Z,16.00
2022-09-25T00:36:59.489Z,16.00
2022-09-25T00:42:00.973Z,16.01
2022-09-25T00:47:03.313Z,16.02
2022-09-25T00:52:09.852Z,16.03
2022-09-25T00:57:15.752Z,16.03
2022-09-25T01:02:24.870Z,16.03
2022-09-25T01:07:26.971Z,16.04
2022-09-25T01:12:28.660Z,16.03
2022-09-25T01:17:41.321Z,16.04
2022-09-25T01:22:51.982Z,16.03
2022-09-25T01:28:29.680Z,16.02
2022-09-25T01:33:42.604Z,16.01
2022-09-25T01:38:50.947Z,15.99
2022-09-25T01:44:02.642Z,15.99
2022-09-25T01:49:17.118Z,15.97
2022-09-25T01:54:27.998Z,15.95
2022-09-25T01:59:42.402Z,15.94
2022-09-25T02:04:52.836Z,15.92
2022-09-25T02:10:12.883Z,15.89
2022-09-25T02:15:26.556Z,15.90
2022-09-25T02:20:32.974Z,15.90
2022-09-25T02:25:38.041Z,15.90
2022-09-25T02:30:39.857Z,15.90
2022-09-25T02:35:42.322Z,15.90
2022-09-25T02:40:51.984Z,15.91
2022-09-25T02:46:10.468Z,15.89
2022-09-25T02:51:21.127Z,15.82
2022-09-25T02:56:29.170Z,15.86
2022-09-25T03:01:33.752Z,15.85
2022-09-25T03:06:54.306Z,15.84
2022-09-25T03:11:57.578Z,15.84
2022-09-25T03:17:04.840Z,15.85
2022-09-25T03:22:06.405Z,15.86
2022-09-25T03:27:07.908Z,15.86
2022-09-25T03:32:09.888Z,15.86
2022-09-25T03:37:11.367Z,15.86
2022-09-25T03:42:13.848Z,15.84
2022-09-25T03:47:15.542Z,15.84
2022-09-25T03:52:17.200Z,15.83
2022-09-25T03:57:18.687Z,15.82
2022-09-25T04:02:20.215Z,15.81
2022-09-25T04:07:22.625Z,15.80
2022-09-25T04:12:24.141Z,15.79
2022-09-25T04:17:25.643Z,15.77
2022-09-25T04:22:27.224Z,15.77
2022-09-25T04:27:28.722Z,15.76
2022-09-25T04:32:48.818Z,15.76
2022-09-25T04:37:50.374Z,15.73
2022-09-25T04:42:57.315Z,15.73
2022-09-25T04:48:00.385Z,15.72
2022-09-25T04:53:02.872Z,15.71
2022-09-25T04:58:04.351Z,15.71
2022-09-25T05:03:05.966Z,15.68
2022-09-25T05:08:07.691Z,15.69
2022-09-25T05:13:11.143Z,15.71
2022-09-25T05:18:17.289Z,15.70
2022-09-25T05:23:19.024Z,15.69
2022-09-25T05:28:20.736Z,15.70
2022-09-25T05:33:22.191Z,15.70
2022-09-25T05:38:23.765Z,15.70
2022-09-25T05:43:25.464Z,15.72
2022-09-25T05:48:27.004Z,15.73
2022-09-25T05:53:30.551Z,15.73
2022-09-25T05:58:34.155Z,15.73
2022-09-25T06:03:36.041Z,15.74
2022-09-25T06:08:37.766Z,15.75
2022-09-25T06:13:39.328Z,15.75
2022-09-25T06:18:40.803Z,15.77
2022-09-25T06:23:44.894Z,15.79
2022-09-25T06:28:46.363Z,15.81
2022-09-25T06:33:50.665Z,15.82
2022-09-25T06:38:55.758Z,15.85
2022-09-25T06:43:57.260Z,15.87
2022-09-25T06:48:58.811Z,15.90
2022-09-25T06:54:00.326Z,15.96
2022-09-25T06:59:01.807Z,16.02
2022-09-25T07:04:04.042Z,16.07
2022-09-25T07:09:05.600Z,16.11
2022-09-25T07:14:07.118Z,16.15
2022-09-25T07:19:09.294Z,16.18
2022-09-25T07:24:11.008Z,16.21
2022-09-25T07:29:12.645Z,16.21
2022-09-25T07:34:14.169Z,16.25
2022-09-25T07:39:24.277Z,16.27
2022-09-25T07:44:31.650Z,16.28
2022-09-25T07:49:40.144Z,16.30
2022-09-25T07:54:43.083Z,16.31
2022-09-25T07:59:45.800Z,16.30
2022-09-25T08:04:47.264Z,16.29
2022-09-25T08:09:48.918Z,16.29
2022-09-25T08:14:51.400Z,16.32
2022-09-25T08:19:52.872Z,16.34
2022-09-25T08:24:54.811Z,16.36
2022-09-25T08:29:56.519Z,16.38
2022-09-25T08:34:58.005Z,16.39
2022-09-25T08:40:00.058Z,16.36
2022-09-25T08:45:26.219Z,16.36
2022-09-25T08:50:29.624Z,16.35
2022-09-25T08:56:02.223Z,16.37
2022-09-25T09:01:09.079Z,16.35
2022-09-25T09:06:14.995Z,16.34
2022-09-25T09:11:22.213Z,16.36
2022-09-25T09:16:26.656Z,16.40
2022-09-25T09:21:28.082Z,16.43
2022-09-25T09:26:50.075Z,16.46
2022-09-25T09:32:03.036Z,16.49
2022-09-25T09:37:22.834Z,16.52
2022-09-25T09:42:40.570Z,16.60
2022-09-25T09:47:56.012Z,16.65
2022-09-25T09:53:04.620Z,16.74
2022-09-25T09:58:17.947Z,16.81
2022-09-25T10:03:28.143Z,16.87
2022-09-25T10:08:30.511Z,16.93
2022-09-25T10:13:37.066Z,16.99
2022-09-25T10:18:44.802Z,17.03
2022-09-25T10:23:46.215Z,17.06
2022-09-25T10:28:47.742Z,17.08
2022-09-25T10:34:12.509Z,17.13
2022-09-25T10:39:51.310Z,17.23
2022-09-25T10:44:58.068Z,17.42
2022-09-25T10:50:12.276Z,17.59
2022-09-25T10:55:20.835Z,17.74
2022-09-25T11:00:24.143Z,17.76
2022-09-25T11:05:32.217Z,17.85
2022-09-25T11:10:36.909Z,17.91
2022-09-25T11:15:39.130Z,17.94
2022-09-25T11:20:42.255Z,17.96
2022-09-25T11:25:53.052Z,18.04
2022-09-25T11:31:27.593Z,18.04
2022-09-25T11:36:41.232Z,18.06
2022-09-25T11:41:55.120Z,18.01
2022-09-25T11:47:27.618Z,18.00
2022-09-25T11:52:48.367Z,17.99
2022-09-25T11:58:14.471Z,18.01
2022-09-25T12:03:37.781Z,18.02
2022-09-25T12:08:59.225Z,18.00
2022-09-25T12:14:19.287Z,18.01
2022-09-25T12:19:37.277Z,18.04
2022-09-25T12:24:57.086Z,18.06
2022-09-25T12:30:28.034Z,18.03
2022-09-25T12:35:46.533Z,18.06
2022-09-25T12:40:47.946Z,18.07
2022-09-25T12:45:58.932Z,18.16
2022-09-25T12:51:14.967Z,18.18
2022-09-25T12:56:44.450Z,18.16
2022-09-25T13:02:30.964Z,18.12
2022-09-25T13:07:46.244Z,18.05
2022-09-25T13:12:49.614Z,18.02
2022-09-25T13:17:51.357Z,18.04
2022-09-25T13:23:15.889Z,18.05
2022-09-25T13:28:23.404Z,18.05
2022-09-25T13:33:25.450Z,18.07
2022-09-25T13:38:45.530Z,18.10
2022-09-25T13:43:49.484Z,18.10
2022-09-25T13:48:52.336Z,18.13
2022-09-25T13:54:04.463Z,18.15
2022-09-25T13:59:16.035Z,18.13
2022-09-25T14:04:25.135Z,18.15
2022-09-25T14:09:30.013Z,18.17
2022-09-25T14:14:52.226Z,18.18
2022-09-25T14:19:56.087Z,18.20
2022-09-25T14:24:57.563Z,18.19
2022-09-25T14:30:10.268Z,18.21
2022-09-25T14:35:30.749Z,18.19
2022-09-25T14:40:40.048Z,18.16
2022-09-25T14:46:02.798Z,18.17
2022-09-25T14:51:25.446Z,18.17
2022-09-25T14:56:34.273Z,18.16
2022-09-25T15:01:36.793Z,18.13
2022-09-25T15:06:40.507Z,18.15
2022-09-25T15:11:43.771Z,18.15
2022-09-25T15:17:04.253Z,18.14
2022-09-25T15:22:17.926Z,18.14
2022-09-25T15:27:20.540Z,18.10
2022-09-25T15:32:23.368Z,18.08
2022-09-25T15:37:29.378Z,18.07
2022-09-25T15:42:30.977Z,18.06
2022-09-25T15:47:35.418Z,18.06
2022-09-25T15:52:38.340Z,18.01
2022-09-25T15:57:40.804Z,18.00
2022-09-25T16:03:09.639Z,18.01
2022-09-25T16:08:17.735Z,18.04
2022-09-25T16:13:25.422Z,18.04
2022-09-25T16:18:34.423Z,18.03
2022-09-25T16:23:38.263Z,18.02
2022-09-25T16:28:39.918Z,18.02
2022-09-25T16:33:48.187Z,18.03
2022-09-25T16:39:07.841Z,17.99
2022-09-25T16:44:21.408Z,17.98
2022-09-25T16:49:24.744Z,17.95
2022-09-25T16:54:30.883Z,17.92
2022-09-25T16:59:32.509Z,17.90
2022-09-25T17:04:35.892Z,17.86
2022-09-25T17:09:37.379Z,17.83
2022-09-25T17:14:38.866Z,17.80
2022-09-25T17:19:40.421Z,17.72
2022-09-25T17:24:42.233Z,17.66
2022-09-25T17:29:46.121Z,17.60
2022-09-25T17:34:47.798Z,17.55
2022-09-25T17:39:49.395Z,17.52
2022-09-25T17:44:50.943Z,17.47
2022-09-25T17:49:52.413Z,17.42
2022-09-25T17:54:53.927Z,17.37
2022-09-25T17:59:55.645Z,17.31
2022-09-25T18:04:57.228Z,17.24
2022-09-25T18:09:58.820Z,17.20
2022-09-25T18:15:00.452Z,17.17
2022-09-25T18:20:20.757Z,17.13
2022-09-25T18:25:22.311Z,17.09
2022-09-25T18:30:24.841Z,17.06
2022-09-25T18:35:26.453Z,17.02
2022-09-25T18:40:28.322Z,17.01
2022-09-25T18:45:29.964Z,16.97
2022-09-25T18:50:32.339Z,16.94
2022-09-25T18:55:33.887Z,16.90
2022-09-25T19:00:35.540Z,16.91
2022-09-25T19:05:37.092Z,16.89
2022-09-25T19:10:38.641Z,16.89
2022-09-25T19:15:43.286Z,16.86
2022-09-25T19:20:53.456Z,16.83
2022-09-25T19:26:01.211Z,16.81
2022-09-25T19:31:08.434Z,16.79
2022-09-25T19:36:31.057Z,16.77
2022-09-25T19:41:35.122Z,16.77
2022-09-25T19:46:36.770Z,16.75
2022-09-25T19:51:39.038Z,16.73
2022-09-25T19:56:42.241Z,16.71
2022-09-25T20:01:44.634Z,16.69
2022-09-25T20:06:46.963Z,16.69
2022-09-25T20:11:48.668Z,16.69
2022-09-25T20:16:50.177Z,16.69
2022-09-25T20:21:52.972Z,16.68
2022-09-25T20:26:55.474Z,16.66
2022-09-25T20:31:56.997Z,16.62
2022-09-25T20:36:58.481Z,16.60
2022-09-25T20:41:59.931Z,16.59
2022-09-25T20:47:01.442Z,16.56
2022-09-25T20:52:03.740Z,16.55
2022-09-25T20:57:05.198Z,16.55
2022-09-25T21:02:07.954Z,16.51
2022-09-25T21:07:14.361Z,16.49
2022-09-25T21:12:18.157Z,16.48
2022-09-25T21:17:19.777Z,16.44
2022-09-25T21:22:21.374Z,16.41
2022-09-25T21:27:22.882Z,16.40
2022-09-25T21:32:24.349Z,16.33
2022-09-25T21:37:25.821Z,16.29
2022-09-25T21:42:29.635Z,16.26
2022-09-25T21:47:31.291Z,16.21
2022-09-25T21:52:32.807Z,16.18
2022-09-25T21:57:34.367Z,16.13
2022-09-25T22:02:35.877Z,16.06
2022-09-25T22:07:37.459Z,16.02
2022-09-25T22:12:38.933Z,15.98
2022-09-25T22:17:40.391Z,15.99
2022-09-25T22:22:41.867Z,15.95
2022-09-25T22:27:43.360Z,15.96
2022-09-25T22:32:45.111Z,15.95
2022-09-25T22:37:46.580Z,15.92
2022-09-25T22:42:48.093Z,15.89
2022-09-25T22:47:49.615Z,15.83
2022-09-25T22:52:53.255Z,15.79
2022-09-25T22:57:57.786Z,15.76
2022-09-25T23:02:59.303Z,15.76
2022-09-25T23:08:00.926Z,15.73
2022-09-25T23:13:03.046Z,15.67
2022-09-25T23:18:05.427Z,15.64
2022-09-25T23:23:06.916Z,15.66
2022-09-25T23:28:08.433Z,15.67
2022-09-25T23:33:09.913Z,15.66
2022-09-25T23:38:11.782Z,15.65
2022-09-25T23:43:13.309Z,15.63
2022-09-25T23:48:15.667Z,15.59
2022-09-25T23:53:17.255Z,15.58
2022-09-25T23:58:18.973Z,15.55
